Time;durP1;ratioP1;P1;durP2;ratioP2;P2;SDS_P1;SDS_P2;PMS_P1;PMS_P2;Temp;Humidity;BMP_temperature;BMP_pressure;BME280_temperature;BME280_humidity;BME280_pressure;Samples;Min_cycle;Max_cycle;Signal;HPM_P1;HPM_P2
2021/01/26 00:00:54;;;;;;;30.30;18.15;;;;;;;2.64;73.86;99271.38;5115722;28;20043;-64
2021/01/26 00:03:20;;;;;;;30.58;17.60;;;;;;;2.66;73.20;99269.03;5115682;28;20021;-63
2021/01/26 00:05:46;;;;;;;29.63;17.88;;;;;;;2.64;73.28;99273.38;5117549;28;20029;-64
2021/01/26 00:08:12;;;;;;;29.92;18.13;;;;;;;2.63;73.35;99269.78;5119296;28;20024;-61
2021/01/26 00:10:38;;;;;;;32.90;18.33;;;;;;;2.60;73.09;99265.00;5118870;28;20667;-61
2021/01/26 00:13:05;;;;;;;34.63;18.88;;;;;;;2.60;73.59;99267.78;5119023;28;20445;-62
2021/01/26 00:15:30;;;;;;;32.00;18.48;;;;;;;2.60;73.16;99265.00;5118929;28;20073;-62
2021/01/26 00:17:56;;;;;;;37.80;19.80;;;;;;;2.60;73.28;99272.53;5119276;28;20023;-61
2021/01/26 00:20:22;;;;;;;30.42;18.73;;;;;;;2.59;73.41;99280.03;5119072;28;20351;-61
2021/01/26 00:22:47;;;;;;;32.38;18.98;;;;;;;2.57;73.41;99276.84;5118702;28;20019;-63
2021/01/26 00:25:24;;;;;;;34.78;18.77;;;;;;;2.56;73.40;99286.34;5108235;28;20081;-63
2021/01/26 00:27:50;;;;;;;28.27;17.60;;;;;;;2.56;73.29;99285.56;5116560;28;20030;-64
2021/01/26 00:30:21;;;;;;;31.05;19.13;;;;;;;2.55;73.43;99290.28;5118980;28;20039;-64
2021/01/26 00:32:47;;;;;;;33.83;18.48;;;;;;;2.57;73.55;99284.38;5118679;28;20027;-67
2021/01/26 00:35:14;;;;;;;27.60;16.77;;;;;;;2.55;73.09;99290.28;5118686;28;20024;-62
2021/01/26 00:37:40;;;;;;;28.67;17.83;;;;;;;2.52;73.29;99296.59;5100389;28;20311;-61
2021/01/26 00:40:07;;;;;;;34.17;19.30;;;;;;;2.50;73.20;99298.94;5118793;28;20012;-61
2021/01/26 00:42:32;;;;;;;29.65;19.17;;;;;;;2.49;73.26;99297.34;5118235;28;20034;-61
2021/01/26 00:44:57;;;;;;;30.58;18.00;;;;;;;2.55;73.98;99301.41;5118228;28;20044;-62
2021/01/26 00:47:23;;;;;;;30.02;18.80;;;;;;;2.55;73.05;99301.41;5118592;28;20068;-64
2021/01/26 00:49:48;;;;;;;30.73;17.67;;;;;;;2.57;72.97;99298.25;5118515;28;20020;-63
2021/01/26 00:52:14;;;;;;;30.60;17.85;;;;;;;2.60;73.07;99301.06;5118170;28;20435;-63
2021/01/26 00:54:39;;;;;;;31.58;17.90;;;;;;;2.64;72.83;99304.69;5118392;28;20292;-65
2021/01/26 00:57:05;;;;;;;28.08;18.40;;;;;;;2.67;72.44;99312.25;5118111;28;20039;-62
2021/01/26 00:59:31;;;;;;;29.00;18.15;;;;;;;2.63;72.17;99310.59;5118107;28;20310;-65
2021/01/26 01:01:57;;;;;;;34.63;18.45;;;;;;;2.58;72.25;99308.97;5118238;28;20034;-65
2021/01/26 01:04:22;;;;;;;30.10;17.10;;;;;;;2.59;72.72;99304.22;5118582;28;20062;-63
2021/01/26 01:06:48;;;;;;;29.48;18.05;;;;;;;2.55;72.50;99312.50;5118005;28;20028;-61
2021/01/26 01:09:13;;;;;;;29.42;17.88;;;;;;;2.55;72.70;99312.50;5117899;28;20024;-66
2021/01/26 01:11:39;;;;;;;29.92;17.23;;;;;;;2.54;72.36;99316.44;5117907;28;20019;-61
2021/01/26 01:14:05;;;;;;;30.30;17.00;;;;;;;2.52;72.71;99316.00;5117763;28;20449;-62
2021/01/26 01:16:30;;;;;;;30.30;17.60;;;;;;;2.49;72.31;99314.00;5117229;28;20400;-62
2021/01/26 01:18:55;;;;;;;31.08;16.92;;;;;;;2.43;72.76;99321.00;5117849;28;20022;-65
2021/01/26 01:21:21;;;;;;;28.25;17.73;;;;;;;2.38;72.92;99313.03;5117794;28;20026;-69
2021/01/26 01:23:46;;;;;;;28.77;17.40;;;;;;;2.36;72.84;99321.72;5113054;28;20030;-61
2021/01/26 01:26:11;;;;;;;30.13;18.02;;;;;;;2.35;72.56;99311.81;5106456;28;20047;-61
2021/01/26 01:28:37;;;;;;;28.52;17.55;;;;;;;2.32;72.67;99315.31;5102149;28;20034;-61
2021/01/26 01:31:03;;;;;;;32.65;16.75;;;;;;;2.29;72.75;99326.38;5111037;28;20012;-61
2021/01/26 01:33:28;;;;;;;28.08;17.52;;;;;;;2.26;72.77;99322.38;5107883;28;20330;-61
2021/01/26 01:35:53;;;;;;;27.20;16.88;;;;;;;2.25;72.59;99325.50;5110323;28;20375;-60
2021/01/26 01:38:19;;;;;;;28.83;16.75;;;;;;;2.22;72.92;99324.28;5113731;28;20046;-61
2021/01/26 01:40:44;;;;;;;26.65;16.13;;;;;;;2.26;72.61;99333.47;5111929;28;20051;-61
2021/01/26 01:43:09;;;;;;;27.25;16.70;;;;;;;2.24;72.49;99327.50;5112051;28;20114;-61
2021/01/26 01:45:35;;;;;;;29.35;17.63;;;;;;;2.19;72.58;99330.56;5117192;28;20119;-61
2021/01/26 01:48:05;;;;;;;27.40;15.52;;;;;;;2.23;72.81;99322.31;5117446;28;20110;-61
2021/01/26 01:50:38;;;;;;;26.52;16.48;;;;;;;2.17;72.31;99330.94;5117036;28;20019;-62
2021/01/26 01:53:27;;;;;;;27.90;17.13;;;;;;;2.13;72.47;99341.16;5117161;28;20042;-61
2021/01/26 01:55:56;;;;;;;25.95;15.95;;;;;;;2.14;72.41;99340.00;5117024;28;20072;-62
2021/01/26 01:58:29;;;;;;;27.83;16.23;;;;;;;2.12;71.98;99342.34;5117159;28;20074;-61
2021/01/26 02:01:01;;;;;;;29.10;16.42;;;;;;;2.10;72.46;99338.34;5099180;28;20103;-61
2021/01/26 02:03:30;;;;;;;30.20;16.88;;;;;;;2.07;72.19;99342.66;5117331;28;20030;-61
2021/01/26 02:05:58;;;;;;;27.00;16.08;;;;;;;2.02;72.48;99337.44;5114782;28;20019;-61
2021/01/26 02:08:33;;;;;;;27.48;16.02;;;;;;;1.98;72.30;99344.88;5090596;28;20039;-61
2021/01/26 02:10:58;;;;;;;32.17;17.98;;;;;;;1.97;72.64;99345.25;5096129;28;20020;-61
2021/01/26 02:13:23;;;;;;;31.25;16.08;;;;;;;1.95;72.19;99348.41;5095604;28;20452;-61
2021/01/26 02:15:56;;;;;;;28.02;16.80;;;;;;;1.90;72.58;99351.47;5096331;28;20103;-62
2021/01/26 02:18:58;;;;;;;29.05;16.17;;;;;;;1.86;72.62;99348.63;5091477;28;20021;-61
2021/01/26 02:22:04;;;;;;;26.73;16.30;;;;;;;1.84;72.30;99353.75;5090150;28;20063;-62
2021/01/26 02:24:45;;;;;;;26.77;15.32;;;;;;;1.81;72.24;99362.81;5084665;28;20024;-61
2021/01/26 02:27:52;;;;;;;26.05;15.68;;;;;;;1.78;72.25;99362.75;5092199;28;20161;-59
2021/01/26 02:30:42;;;;;;;27.20;16.63;;;;;;;1.74;72.38;99359.91;5074155;28;20078;-60
2021/01/26 02:33:48;;;;;;;27.27;15.55;;;;;;;1.74;72.33;99368.22;5084796;28;20032;-60
2021/01/26 02:36:43;;;;;;;26.88;16.05;;;;;;;1.70;72.59;99361.03;5082270;28;20311;-60
2021/01/26 02:39:29;;;;;;;28.33;16.13;;;;;;;1.67;72.60;99378.38;5095853;28;20103;-60
2021/01/26 02:42:10;;;;;;;27.10;16.30;;;;;;;1.62;72.47;99381.44;5095952;28;20444;-61
2021/01/26 02:45:11;;;;;;;29.30;16.48;;;;;;;1.60;72.60;99378.22;5095477;28;20055;-63
2021/01/26 02:47:58;;;;;;;28.33;16.58;;;;;;;1.55;72.69;99387.63;5077818;28;20031;-61
2021/01/26 02:50:31;;;;;;;27.10;15.88;;;;;;;1.51;72.74;99387.56;5096203;28;20028;-62
2021/01/26 02:53:19;;;;;;;27.90;16.77;;;;;;;1.50;72.64;99391.50;5095400;28;20081;-61
2021/01/26 02:56:08;;;;;;;27.40;16.58;;;;;;;1.47;72.78;99389.47;5095844;28;20081;-62
2021/01/26 02:58:44;;;;;;;26.58;15.60;;;;;;;1.45;73.12;99396.56;5083450;28;20024;-65
2021/01/26 03:01:12;;;;;;;27.73;16.40;;;;;;;1.45;72.95;99400.13;5095649;28;20056;-62
2021/01/26 03:03:44;;;;;;;29.70;16.33;;;;;;;1.43;73.02;99396.91;5095556;28;20020;-61
2021/01/26 03:06:16;;;;;;;27.92;16.33;;;;;;;1.44;73.06;99398.53;5077650;28;20024;-62
2021/01/26 03:09:06;;;;;;;25.52;14.98;;;;;;;1.43;73.05;99399.69;5095441;28;20292;-66
2021/01/26 03:11:55;;;;;;;25.60;16.13;;;;;;;1.39;73.34;99400.78;5095501;28;20293;-62
2021/01/26 03:14:35;;;;;;;26.38;16.13;;;;;;;1.39;73.48;99398.03;5095924;28;20029;-62
2021/01/26 03:17:11;;;;;;;28.83;15.23;;;;;;;1.42;73.41;99403.63;5095321;28;20308;-72
2021/01/26 03:19:39;;;;;;;26.60;16.75;;;;;;;1.45;73.51;99405.66;5095626;28;20406;-72
2021/01/26 03:22:08;;;;;;;32.95;17.23;;;;;;;1.55;73.44;99409.78;5095167;28;20046;-63
2021/01/26 03:24:37;;;;;;;29.60;16.70;;;;;;;1.66;73.06;99416.34;5095350;28;20358;-62
2021/01/26 03:27:10;;;;;;;31.98;16.55;;;;;;;1.67;72.77;99417.97;5095372;28;20065;-61
2021/01/26 03:29:39;;;;;;;27.67;15.93;;;;;;;1.64;72.82;99424.22;5095736;28;20089;-61
2021/01/26 03:32:11;;;;;;;25.65;15.43;;;;;;;1.62;72.92;99425.75;5095312;28;20047;-62
2021/01/26 03:34:37;;;;;;;25.30;15.52;;;;;;;1.61;72.94;99426.91;5095443;28;20339;-61
2021/01/26 03:37:03;;;;;;;25.52;15.93;;;;;;;1.62;73.02;99425.75;5094933;28;20035;-62
2021/01/26 03:39:28;;;;;;;29.33;16.95;;;;;;;1.62;72.94;99437.63;5095659;28;20032;-61
2021/01/26 03:41:53;;;;;;;29.73;16.80;;;;;;;1.59;73.01;99437.56;5099961;28;20279;-62
2021/01/26 03:44:19;;;;;;;35.63;17.50;;;;;;;1.59;73.34;99432.00;5099206;28;20051;-61
2021/01/26 03:46:47;;;;;;;36.63;18.65;;;;;;;1.67;73.22;99428.25;5099110;28;20315;-61
2021/01/26 03:49:49;;;;;;;38.00;21.33;;;;;;;1.68;73.23;99440.91;5099105;28;20031;-62
2021/01/26 03:52:23;;;;;;;36.17;19.67;;;;;;;1.63;72.86;99438.41;5098994;28;20028;-61
2021/01/26 03:55:14;;;;;;;30.75;16.90;;;;;;;1.55;72.85;99443.81;5099191;28;20427;-61
2021/01/26 03:58:04;;;;;;;32.13;18.07;;;;;;;1.50;73.46;99457.97;5098948;28;20043;-60
2021/01/26 04:00:36;;;;;;;29.02;15.55;;;;;;;1.46;73.51;99459.88;5098887;28;20431;-61
2021/01/26 04:03:01;;;;;;;;;;;;;;;1.46;73.67;99473.72;5099696;28;20016;-61
2021/01/26 04:05:35;;;;;;;28.23;16.50;;;;;;;1.54;74.14;99467.16;5098779;28;20192;-60
2021/01/26 04:08:08;;;;;;;28.95;16.73;;;;;;;1.55;73.69;99468.75;5090001;28;20311;-63
2021/01/26 04:10:39;;;;;;;28.30;17.77;;;;;;;1.57;73.33;99478.66;5079298;28;20025;-57
2021/01/26 04:13:09;;;;;;;29.67;16.55;;;;;;;1.54;73.40;99472.69;5098484;28;20027;-59
2021/01/26 04:15:45;;;;;;;29.00;16.13;;;;;;;1.53;73.52;99473.84;5098631;28;20039;-59
2021/01/26 04:18:14;;;;;;;28.88;16.27;;;;;;;1.50;73.64;99482.09;5095135;28;20023;-59
2021/01/26 04:20:41;;;;;;;25.92;15.88;;;;;;;1.47;73.68;99483.63;5098308;28;20023;-60
2021/01/26 04:23:07;;;;;;;28.15;16.35;;;;;;;1.47;73.90;99489.16;5098750;28;20442;-67
2021/01/26 04:25:34;;;;;;;26.80;15.30;;;;;;;1.50;73.67;99499.50;5098698;28;20024;-61
2021/01/26 04:28:02;;;;;;;31.98;16.50;;;;;;;1.53;73.20;99501.56;5098595;28;20024;-62
2021/01/26 04:30:27;;;;;;;26.00;15.05;;;;;;;1.51;73.54;99494.78;5098351;28;20408;-67
2021/01/26 04:33:05;;;;;;;28.88;16.08;;;;;;;1.51;73.64;99503.09;5098447;28;20073;-61
2021/01/26 04:35:31;;;;;;;27.45;16.30;;;;;;;1.57;73.33;99509.94;5093231;28;20032;-62
2021/01/26 04:37:57;;;;;;;28.55;16.20;;;;;;;1.60;73.54;99508.41;5096776;28;20131;-62
2021/01/26 04:40:24;;;;;;;26.73;15.25;;;;;;;1.65;73.56;99513.69;5087593;28;20099;-60
2021/01/26 04:42:57;;;;;;;27.45;15.98;;;;;;;1.66;72.83;99518.03;5076335;28;20028;-61
2021/01/26 04:45:36;;;;;;;27.20;16.25;;;;;;;1.62;72.95;99519.91;5090086;28;20044;-62
2021/01/26 04:48:39;;;;;;;26.30;14.98;;;;;;;1.54;73.44;99514.22;5092132;28;20715;-62
2021/01/26 04:51:12;;;;;;;25.58;15.35;;;;;;;1.53;73.69;99522.91;5088187;28;20043;-65
2021/01/26 04:54:17;;;;;;;27.88;16.08;;;;;;;1.53;73.70;99528.44;5090023;28;20112;-62
2021/01/26 04:57:04;;;;;;;27.23;15.43;;;;;;;1.49;73.54;99528.38;5088527;28;20032;-61
2021/01/26 04:59:48;;;;;;;26.02;15.38;;;;;;;1.52;73.81;99529.63;5092529;28;20463;-62
2021/01/26 05:02:41;;;;;;;26.08;15.55;;;;;;;1.51;73.81;99533.56;5090821;28;20024;-71
2021/01/26 05:05:11;;;;;;;27.95;16.75;;;;;;;1.51;73.72;99542.66;5069233;28;20024;-61
2021/01/26 05:07:43;;;;;;;25.30;14.52;;;;;;;1.52;73.89;99544.25;5097755;28;20093;-63
2021/01/26 05:10:15;;;;;;;;;;;;;;;1.59;74.01;99553.88;5097993;28;20119;-59
2021/01/26 05:12:47;;;;;;;28.60;15.13;;;;;;;1.63;73.26;99555.56;5097048;28;19908;-61
2021/01/26 05:15:18;;;;;;;;;;;;;;;1.67;73.52;99559.25;5086956;28;20024;-59
2021/01/26 05:17:50;;;;;;;26.83;14.10;;;;;;;1.64;73.31;99556.38;5092898;28;19919;-62
2021/01/26 05:20:21;;;;;;;39.28;16.08;;;;;;;1.67;73.96;99563.97;5086235;28;20081;-61
2021/01/26 05:23:03;;;;;;;27.55;15.25;;;;;;;1.69;73.25;99567.19;5093246;28;20135;-61
2021/01/26 05:25:29;;;;;;;22.75;13.50;;;;;;;1.67;73.09;99564.78;5097271;28;20105;-62
2021/01/26 05:27:54;;;;;;;27.23;14.18;;;;;;;1.64;73.20;99564.66;5097119;28;20047;-61
2021/01/26 05:30:33;;;;;;;24.85;14.73;;;;;;;1.73;73.05;99573.59;5096892;28;20093;-61
2021/01/26 05:33:04;;;;;;;109.93;43.38;;;;;;;1.73;72.85;99570.81;5092131;28;20028;-61
2021/01/26 05:35:30;;;;;;;105.78;51.03;;;;;;;1.75;72.83;99574.03;5091118;28;20039;-61
2021/01/26 05:37:55;;;;;;;150.10;74.72;;;;;;;1.71;72.65;99573.16;5092669;28;20031;-61
2021/01/26 05:40:28;;;;;;;323.38;173.38;;;;;;;1.78;72.98;99585.19;5096431;28;20403;-68
2021/01/26 05:42:56;;;;;;;121.10;75.68;;;;;;;1.80;72.51;99593.13;5088750;28;20059;-63
2021/01/26 05:45:24;;;;;;;98.80;58.22;;;;;;;1.80;72.13;99590.38;5095044;28;20048;-68
2021/01/26 05:48:15;;;;;;;207.88;117.47;;;;;;;1.74;72.50;99592.63;5095238;28;20036;-61
2021/01/26 05:50:42;;;;;;;68.90;41.22;;;;;;;1.71;72.62;99598.91;5094544;28;20077;-61
2021/01/26 05:53:16;;;;;;;46.40;29.15;;;;;;;1.72;72.45;99608.00;5095592;28;20035;-61
2021/01/26 05:55:56;;;;;;;29.15;19.20;;;;;;;1.76;72.76;99606.13;5094401;28;20027;-61
2021/01/26 05:58:25;;;;;;;33.08;19.92;;;;;;;1.73;72.41;99604.06;5096046;28;20024;-60
2021/01/26 06:00:59;;;;;;;30.00;18.75;;;;;;;1.68;72.44;99607.94;5096302;28;20028;-61
2021/01/26 06:03:25;;;;;;;26.95;17.00;;;;;;;1.74;72.65;99616.75;5096395;28;20047;-62
2021/01/26 06:06:02;;;;;;;27.15;14.30;;;;;;;1.85;72.59;99612.25;5096504;28;20353;-61
2021/01/26 06:08:27;;;;;;;23.08;14.23;;;;;;;1.84;72.11;99616.19;5096609;28;20453;-61
2021/01/26 06:10:54;;;;;;;26.50;15.52;;;;;;;1.76;71.87;99619.97;5096115;28;20032;-61
2021/01/26 06:13:30;;;;;;;42.78;22.08;;;;;;;1.76;72.30;99617.19;5096554;28;20030;-61
2021/01/26 06:16:11;;;;;;;50.17;24.27;;;;;;;1.79;72.00;99620.03;5096158;28;20415;-61
2021/01/26 06:18:38;;;;;;;50.30;24.63;;;;;;;1.86;72.19;99630.47;5096324;28;20084;-60
2021/01/26 06:21:13;;;;;;;41.28;21.88;;;;;;;1.88;71.93;99622.59;5096343;28;20020;-61
2021/01/26 06:23:39;;;;;;;29.45;17.33;;;;;;;1.98;71.62;99635.09;5096045;28;20024;-61
2021/01/26 06:26:08;;;;;;;29.42;16.13;;;;;;;1.99;71.36;99631.97;5096468;28;20031;-68
2021/01/26 06:28:55;;;;;;;31.80;17.83;;;;;;;1.94;71.44;99637.78;5096088;28;20051;-62
2021/01/26 06:31:40;;;;;;;73.28;32.70;;;;;;;1.98;71.36;99648.94;5096102;28;20028;-61
2021/01/26 06:34:05;;;;;;;54.83;27.20;;;;;;;1.98;71.09;99646.97;5095954;28;20031;-61
2021/01/26 06:36:49;;;;;;;53.40;27.02;;;;;;;1.96;71.16;99645.75;5095933;28;20028;-61
2021/01/26 06:39:24;;;;;;;30.60;17.77;;;;;;;1.98;71.36;99649.75;5077922;28;20315;-63
2021/01/26 06:42:08;;;;;;;29.23;16.60;;;;;;;1.97;71.42;99648.16;5096024;28;20473;-61
2021/01/26 06:45:15;;;;;;;29.08;15.82;;;;;;;2.02;71.35;99647.84;5082565;28;20119;-61
2021/01/26 06:47:52;;;;;;;25.15;15.48;;;;;;;1.95;70.96;99653.25;5073507;28;20145;-61
2021/01/26 06:50:32;;;;;;;29.35;15.32;;;;;;;1.90;71.27;99659.06;5073609;28;20032;-61
2021/01/26 06:53:22;;;;;;;23.00;14.38;;;;;;;1.92;71.47;99665.06;5081342;28;20040;-61
2021/01/26 06:56:22;;;;;;;38.40;17.70;;;;;;;1.92;71.52;99662.28;5077724;28;20020;-61
2021/01/26 06:59:09;;;;;;;30.67;17.30;;;;;;;1.98;71.59;99676.66;5066540;28;20036;-60
2021/01/26 07:02:36;;;;;;;31.75;18.55;;;;;;;2.09;71.13;99681.25;5082797;28;20107;-61
2021/01/26 07:05:23;;;;;;;30.33;16.55;;;;;;;2.23;70.83;99674.44;5023379;28;20075;-61
2021/01/26 07:08:24;;;;;;;33.45;17.25;;;;;;;2.23;70.65;99683.56;5092002;28;20059;-62
2021/01/26 07:11:10;;;;;;;29.02;16.05;;;;;;;2.24;70.43;99685.16;5066393;28;20043;-61
2021/01/26 07:13:48;;;;;;;29.48;16.25;;;;;;;2.19;69.89;99688.19;5083622;28;20034;-60
2021/01/26 07:16:52;;;;;;;28.52;16.63;;;;;;;2.20;70.29;99700.13;5094985;28;20032;-61
2021/01/26 07:19:48;;;;;;;27.20;15.70;;;;;;;2.21;70.43;99701.72;5080181;28;20035;-61
2021/01/26 07:22:19;;;;;;;27.15;15.68;;;;;;;2.23;70.14;99704.94;5094968;28;20046;-61
2021/01/26 07:25:03;;;;;;;31.38;16.65;;;;;;;2.40;69.84;99710.03;5095283;28;20403;-61
2021/01/26 07:27:46;;;;;;;27.60;16.05;;;;;;;2.34;69.25;99711.50;5095426;28;20031;-61
2021/01/26 07:30:20;;;;;;;27.33;15.82;;;;;;;2.25;69.79;99720.03;5095266;28;20024;-61
2021/01/26 07:32:56;;;;;;;25.73;15.07;;;;;;;2.18;70.41;99722.63;5095487;28;20474;-61
2021/01/26 07:35:37;;;;;;;28.08;16.90;;;;;;;2.20;70.48;99717.56;5095069;28;20028;-61
2021/01/26 07:38:05;;;;;;;28.85;17.17;;;;;;;2.23;70.44;99722.38;5095466;28;20081;-61
2021/01/26 07:40:45;;;;;;;27.30;15.13;;;;;;;2.23;70.27;99732.66;5095059;28;20411;-61
2021/01/26 07:43:21;;;;;;;30.17;17.02;;;;;;;2.22;70.23;99733.81;5077307;28;20024;-61
2021/01/26 07:45:55;;;;;;;33.20;17.40;;;;;;;2.28;69.99;99735.94;5094866;28;20036;-62
2021/01/26 07:48:32;;;;;;;33.95;18.38;;;;;;;2.29;70.12;99740.31;5095436;28;20035;-63
2021/01/26 07:51:02;;;;;;;33.72;17.95;;;;;;;2.45;70.08;99734.69;5094714;28;20020;-61
2021/01/26 07:53:43;;;;;;;32.00;17.60;;;;;;;2.46;69.96;99742.66;5095672;28;20031;-64
2021/01/26 07:56:21;;;;;;;33.50;17.98;;;;;;;2.44;70.07;99749.75;5095076;28;20039;-62
2021/01/26 07:58:48;;;;;;;32.45;18.73;;;;;;;2.55;69.84;99750.78;5095453;28;20028;-63
2021/01/26 08:01:17;;;;;;;38.30;18.90;;;;;;;2.59;69.78;99754.44;5095085;28;20361;-61
2021/01/26 08:03:43;;;;;;;34.72;19.13;;;;;;;2.58;69.61;99752.84;5094990;28;20048;-63
2021/01/26 08:06:34;;;;;;;36.20;19.15;;;;;;;2.55;70.28;99756.34;5094924;28;20016;-62
2021/01/26 08:09:01;;;;;;;29.90;15.52;;;;;;;2.56;69.93;99757.16;5094834;28;20070;-61
2021/01/26 08:11:27;;;;;;;37.53;21.00;;;;;;;2.62;70.38;99762.03;5094827;28;20465;-61
2021/01/26 08:13:56;;;;;;;54.30;30.45;;;;;;;2.58;69.55;99763.94;5095033;28;20039;-61
2021/01/26 08:16:27;;;;;;;68.43;41.95;;;;;;;2.59;70.43;99762.75;5094904;28;20099;-61
2021/01/26 08:18:53;;;;;;;57.55;34.28;;;;;;;2.65;71.05;99760.50;5094734;28;20073;-61
2021/01/26 08:21:30;;;;;;;47.55;26.88;;;;;;;2.78;71.23;99768.31;5095120;28;20044;-61
2021/01/26 08:24:17;;;;;;;69.28;36.15;;;;;;;3.01;71.11;99764.78;5076944;28;20024;-61
2021/01/26 08:26:43;;;;;;;51.35;30.08;;;;;;;3.20;70.41;99767.53;5096705;28;20028;-61
2021/01/26 08:29:09;;;;;;;40.05;23.10;;;;;;;3.39;69.25;99773.06;5098627;28;20106;-61
2021/01/26 08:31:38;;;;;;;45.58;24.48;;;;;;;3.61;69.75;99779.00;5098551;28;20078;-60
2021/01/26 08:34:25;;;;;;;37.08;21.05;;;;;;;3.82;69.42;99776.56;5098359;28;20023;-61
2021/01/26 08:37:08;;;;;;;39.22;20.70;;;;;;;4.00;69.17;99785.19;5098409;28;20028;-63
2021/01/26 08:39:49;;;;;;;37.85;19.70;;;;;;;4.15;67.76;99789.81;5086620;28;20307;-61
2021/01/26 08:42:43;;;;;;;39.50;22.40;;;;;;;4.25;66.60;99789.16;5098273;28;20024;-61
2021/01/26 08:45:25;;;;;;;44.42;23.25;;;;;;;4.30;66.75;99799.97;5098193;28;20272;-61
2021/01/26 08:47:59;;;;;;;36.65;19.98;;;;;;;4.27;66.39;99799.91;5084098;28;20378;-63
2021/01/26 08:50:27;;;;;;;37.75;20.98;;;;;;;4.25;66.56;99807.84;5098058;28;20020;-61
2021/01/26 08:53:13;;;;;;;35.00;20.38;;;;;;;4.24;66.51;99806.22;5079977;28;20111;-61
2021/01/26 08:55:45;;;;;;;38.47;21.33;;;;;;;4.26;67.13;99820.56;5097650;28;20040;-61
2021/01/26 08:58:32;;;;;;;41.67;20.05;;;;;;;4.28;66.16;99819.00;5098070;28;20027;-62
2021/01/26 09:00:57;;;;;;;35.42;19.65;;;;;;;4.28;65.49;99818.22;5097556;28;20041;-62
2021/01/26 09:03:31;;;;;;;32.90;19.40;;;;;;;4.37;65.96;99831.84;5098004;28;20095;-60
2021/01/26 09:06:13;;;;;;;30.45;19.23;;;;;;;4.56;65.90;99831.75;5079803;28;20024;-61
2021/01/26 09:08:42;;;;;;;41.72;21.00;;;;;;;4.83;65.40;99832.50;5097846;28;20125;-61
2021/01/26 09:11:27;;;;;;;41.95;20.58;;;;;;;5.10;64.19;99839.63;5097254;28;20024;-60
2021/01/26 09:14:01;;;;;;;32.10;18.73;;;;;;;5.35;64.68;99842.72;5097682;28;20046;-61
2021/01/26 09:16:28;;;;;;;39.42;19.20;;;;;;;5.56;63.76;99844.94;5097658;28;20027;-60
2021/01/26 09:19:30;;;;;;;35.67;19.77;;;;;;;5.85;63.91;99846.81;5097770;28;20334;-61
2021/01/26 09:21:55;;;;;;;46.37;23.60;;;;;;;6.17;63.10;99833.19;5097420;28;20028;-61
2021/01/26 09:24:23;;;;;;;30.90;19.05;;;;;;;6.40;60.73;99846.91;5097446;28;20027;-61
2021/01/26 09:26:49;;;;;;;40.58;22.02;;;;;;;6.56;58.51;99840.22;5097146;28;20032;-61
2021/01/26 09:29:23;;;;;;;49.92;25.15;;;;;;;6.71;60.49;99839.94;5097456;28;20032;-61
2021/01/26 09:31:48;;;;;;;38.08;21.75;;;;;;;6.86;59.96;99842.81;5097445;28;20385;-61
2021/01/26 09:34:14;;;;;;;39.35;21.88;;;;;;;6.92;58.97;99839.25;5097082;28;20081;-61
2021/01/26 09:36:39;;;;;;;49.28;24.25;;;;;;;7.05;58.24;99845.28;5097319;28;20063;-61
2021/01/26 09:39:10;;;;;;;44.00;22.77;;;;;;;7.12;58.08;99831.34;5096560;28;20425;-61
2021/01/26 09:41:37;;;;;;;47.67;24.27;;;;;;;7.10;58.78;99851.31;5096934;28;20027;-61
2021/01/26 09:44:02;;;;;;;44.67;22.90;;;;;;;7.07;58.72;99851.28;5096926;28;20099;-61
2021/01/26 09:46:38;;;;;;;54.65;27.95;;;;;;;7.00;57.82;99854.84;5097091;28;20047;-61
2021/01/26 09:49:25;;;;;;;33.00;19.42;;;;;;;7.01;58.85;99852.88;5096740;28;20419;-61
2021/01/26 09:52:08;;;;;;;33.28;21.00;;;;;;;6.93;58.85;99852.03;5096926;28;20036;-63
2021/01/26 09:54:38;;;;;;;31.52;18.20;;;;;;;6.94;59.29;99853.63;5096987;28;20071;-61
2021/01/26 09:57:05;;;;;;;29.52;17.92;;;;;;;6.98;58.30;99842.47;5097237;28;20055;-61
2021/01/26 09:59:34;;;;;;;30.02;18.08;;;;;;;7.02;57.15;99849.69;5096536;28;20426;-60
2021/01/26 10:02:04;;;;;;;28.80;18.30;;;;;;;7.02;57.43;99849.69;5096721;28;20081;-61
2021/01/26 10:04:37;;;;;;;35.33;18.33;;;;;;;6.96;57.53;99850.44;5096453;28;20024;-61
2021/01/26 10:07:09;;;;;;;28.60;16.83;;;;;;;6.93;57.09;99851.25;5096868;28;20294;-60
2021/01/26 10:09:36;;;;;;;24.33;16.20;;;;;;;6.98;58.09;99846.06;5096439;28;20105;-61
2021/01/26 10:12:28;;;;;;;27.98;16.67;;;;;;;7.06;57.63;99844.91;5096504;28;20536;-61
2021/01/26 10:15:10;;;;;;;27.23;17.58;;;;;;;7.10;56.43;99850.50;5096144;28;20471;-61
2021/01/26 10:17:41;;;;;;;27.30;17.10;;;;;;;7.10;57.10;99851.31;5096674;28;20016;-61
2021/01/26 10:20:07;;;;;;;27.08;15.80;;;;;;;7.09;56.86;99846.91;5096521;28;20036;-60
2021/01/26 10:22:32;;;;;;;25.17;15.60;;;;;;;7.07;56.34;99849.28;5096152;28;20020;-61
2021/01/26 10:25:10;;;;;;;24.55;15.68;;;;;;;7.07;56.49;99852.09;5096368;28;20023;-60
2021/01/26 10:27:37;;;;;;;25.98;14.73;;;;;;;7.05;56.84;99846.09;5096410;28;20320;-61
2021/01/26 10:30:15;;;;;;;26.13;15.25;;;;;;;7.06;56.60;99849.69;5096158;28;20303;-61
2021/01/26 10:32:47;;;;;;;28.00;15.63;;;;;;;6.98;56.59;99857.25;5083767;28;20028;-61
2021/01/26 10:35:24;;;;;;;;;;;;;;;6.91;56.24;99853.63;5096257;28;20360;-61
2021/01/26 10:37:50;;;;;;;36.90;20.23;;;;;;;6.84;56.21;99854.38;5095933;28;20318;-61
2021/01/26 10:40:18;;;;;;;38.65;19.20;;;;;;;6.83;55.67;99859.16;5096143;28;20031;-61
2021/01/26 10:43:00;;;;;;;57.63;25.40;;;;;;;6.84;57.01;99854.38;5081833;28;20324;-59
2021/01/26 10:45:50;;;;;;;48.10;22.77;;;;;;;6.89;56.45;99859.59;5095828;28;20435;-61
2021/01/26 10:48:28;;;;;;;84.22;29.50;;;;;;;6.91;57.00;99860.00;5095936;28;20036;-60
2021/01/26 10:50:55;;;;;;;59.00;25.95;;;;;;;7.01;56.90;99864.84;5094592;28;20439;-61
2021/01/26 10:53:42;;;;;;;45.05;20.98;;;;;;;7.16;56.29;99864.94;5096014;28;20028;-61
2021/01/26 10:56:08;;;;;;;40.63;20.15;;;;;;;7.26;56.64;99864.16;5095654;28;20031;-61
2021/01/26 10:58:34;;;;;;;33.20;18.45;;;;;;;7.30;54.25;99862.97;5095967;28;20378;-64
2021/01/26 11:00:59;;;;;;;43.50;21.52;;;;;;;7.34;54.13;99860.19;5095617;28;20055;-61
2021/01/26 11:03:25;;;;;;;44.08;21.75;;;;;;;7.41;55.10;99855.44;5095728;28;20016;-61
2021/01/26 11:05:50;;;;;;;38.92;17.95;;;;;;;7.54;54.55;99858.66;5095284;28;20285;-62
2021/01/26 11:08:16;;;;;;;24.15;14.73;;;;;;;7.72;54.69;99855.94;5095868;28;20035;-61
2021/01/26 11:10:41;;;;;;;34.92;18.52;;;;;;;7.88;53.56;99863.94;5095476;28;20068;-65
2021/01/26 11:13:07;;;;;;;26.08;15.18;;;;;;;8.00;53.30;99864.38;5095496;28;20016;-61
2021/01/26 11:15:33;;;;;;;33.05;18.58;;;;;;;8.13;52.88;99861.97;5095626;28;20020;-61
2021/01/26 11:17:58;;;;;;;35.70;18.92;;;;;;;8.18;52.65;99875.56;5095481;28;20438;-61
2021/01/26 11:20:24;;;;;;;29.70;15.95;;;;;;;8.07;51.91;99863.56;5095459;28;20074;-63
2021/01/26 11:22:49;;;;;;;33.65;17.05;;;;;;;8.06;53.03;99861.97;5095596;28;20127;-61
2021/01/26 11:25:16;;;;;;;30.20;15.05;;;;;;;8.13;52.50;99861.97;5095533;28;20419;-61
2021/01/26 11:27:41;;;;;;;24.38;13.60;;;;;;;8.18;50.71;99858.75;5095375;28;20319;-61
2021/01/26 11:30:10;;;;;;;26.10;14.52;;;;;;;8.21;50.70;99869.16;5095378;28;20032;-62
2021/01/26 11:32:36;;;;;;;25.50;14.32;;;;;;;8.24;50.13;99862.78;5095509;28;20035;-61
2021/01/26 11:35:02;;;;;;;17.92;11.40;;;;;;;8.21;50.15;99863.56;5095024;28;20024;-61
2021/01/26 11:37:28;;;;;;;17.88;10.77;;;;;;;8.17;49.58;99859.16;5095271;28;20531;-61
2021/01/26 11:39:53;;;;;;;19.58;11.05;;;;;;;8.12;48.15;99860.38;5095356;28;20031;-60
2021/01/26 11:42:18;;;;;;;17.88;11.40;;;;;;;8.04;48.16;99858.78;5095148;28;20349;-64
2021/01/26 11:44:44;;;;;;;20.80;13.13;;;;;;;7.98;48.57;99863.97;5095042;28;20044;-61
2021/01/26 11:47:09;;;;;;;23.48;15.55;;;;;;;8.10;48.15;99862.78;5095288;28;20040;-61
2021/01/26 11:49:35;;;;;;;14.60;9.13;;;;;;;8.04;46.42;99859.56;5094956;28;20046;-61
2021/01/26 11:52:01;;;;;;;18.67;12.18;;;;;;;8.04;48.01;99861.56;5095102;28;20020;-61
2021/01/26 11:54:26;;;;;;;23.00;12.45;;;;;;;7.98;47.97;99855.56;5095178;28;20073;-60
2021/01/26 11:56:52;;;;;;;24.33;15.30;;;;;;;7.94;47.93;99862.34;5095221;28;20077;-60